sensor_id;sensor_type;location;lat;lon;timestamp;P1;durP1;ratioP1;P2;durP2;ratioP2
64633;SDS011;51043;52.406;9.690;2022-07-30T00:00:06;9.98;;;6.53;;
64633;SDS011;51043;52.406;9.690;2022-07-30T00:02:35;29.92;;;6.80;;
64633;SDS011;51043;52.406;9.690;2022-07-30T00:05:03;11.75;;;6.68;;
64633;SDS011;51043;52.406;9.690;2022-07-30T00:07:30;13.32;;;7.22;;
64633;SDS011;51043;52.406;9.690;2022-07-30T00:09:57;12.38;;;7.28;;
64633;SDS011;51043;52.406;9.690;2022-07-30T00:12:24;10.00;;;7.28;;
64633;SDS011;51043;52.406;9.690;2022-07-30T00:14:50;14.57;;;8.10;;
64633;SDS011;51043;52.406;9.690;2022-07-30T00:17:17;9.63;;;6.18;;
64633;SDS011;51043;52.406;9.690;2022-07-30T00:19:44;10.82;;;5.90;;
64633;SDS011;51043;52.406;9.690;2022-07-30T00:22:12;11.68;;;6.45;;
64633;SDS011;51043;52.406;9.690;2022-07-30T00:24:39;12.73;;;6.30;;
64633;SDS011;51043;52.406;9.690;2022-07-30T00:27:06;13.05;;;6.85;;
64633;SDS011;51043;52.406;9.690;2022-07-30T00:29:33;12.82;;;7.38;;
64633;SDS011;51043;52.406;9.690;2022-07-30T00:31:59;11.75;;;6.45;;
64633;SDS011;51043;52.406;9.690;2022-07-30T00:34:26;10.48;;;5.78;;
64633;SDS011;51043;52.406;9.690;2022-07-30T00:36:54;9.88;;;6.55;;
64633;SDS011;51043;52.406;9.690;2022-07-30T00:39:21;11.50;;;6.20;;
64633;SDS011;51043;52.406;9.690;2022-07-30T00:42:10;13.57;;;5.82;;
64633;SDS011;51043;52.406;9.690;2022-07-30T00:44:35;9.32;;;5.40;;
64633;SDS011;51043;52.406;9.690;2022-07-30T00:47:02;9.70;;;5.18;;
64633;SDS011;51043;52.406;9.690;2022-07-30T00:49:29;9.68;;;5.28;;
64633;SDS011;51043;52.406;9.690;2022-07-30T00:51:55;7.38;;;5.75;;
64633;SDS011;51043;52.406;9.690;2022-07-30T00:54:22;7.40;;;5.47;;
64633;SDS011;51043;52.406;9.690;2022-07-30T00:56:50;9.98;;;5.60;;
64633;SDS011;51043;52.406;9.690;2022-07-30T00:59:17;13.68;;;5.53;;
64633;SDS011;51043;52.406;9.690;2022-07-30T01:01:44;11.35;;;5.88;;
64633;SDS011;51043;52.406;9.690;2022-07-30T01:04:10;11.10;;;6.50;;
64633;SDS011;51043;52.406;9.690;2022-07-30T01:06:37;10.73;;;6.30;;
64633;SDS011;51043;52.406;9.690;2022-07-30T01:09:06;14.45;;;7.13;;
64633;SDS011;51043;52.406;9.690;2022-07-30T01:11:37;12.93;;;6.03;;
64633;SDS011;51043;52.406;9.690;2022-07-30T01:14:07;9.38;;;6.10;;
64633;SDS011;51043;52.406;9.690;2022-07-30T01:16:35;14.48;;;6.93;;
64633;SDS011;51043;52.406;9.690;2022-07-30T01:19:09;13.40;;;6.18;;
64633;SDS011;51043;52.406;9.690;2022-07-30T01:24:39;16.75;;;7.07;;
64633;SDS011;51043;52.406;9.690;2022-07-30T01:27:09;12.63;;;6.85;;
64633;SDS011;51043;52.406;9.690;2022-07-30T01:29:38;13.85;;;6.90;;
64633;SDS011;51043;52.406;9.690;2022-07-30T01:32:07;12.60;;;7.22;;
64633;SDS011;51043;52.406;9.690;2022-07-30T01:34:36;11.10;;;6.78;;
64633;SDS011;51043;52.406;9.690;2022-07-30T01:37:05;15.40;;;6.70;;
64633;SDS011;51043;52.406;9.690;2022-07-30T01:39:34;14.02;;;6.30;;
64633;SDS011;51043;52.406;9.690;2022-07-30T01:42:02;13.88;;;6.53;;
64633;SDS011;51043;52.406;9.690;2022-07-30T01:44:32;11.25;;;6.53;;
64633;SDS011;51043;52.406;9.690;2022-07-30T01:47:00;10.68;;;6.13;;
64633;SDS011;51043;52.406;9.690;2022-07-30T01:49:28;11.88;;;6.38;;
64633;SDS011;51043;52.406;9.690;2022-07-30T01:51:56;13.23;;;7.13;;
64633;SDS011;51043;52.406;9.690;2022-07-30T01:54:28;12.85;;;6.90;;
64633;SDS011;51043;52.406;9.690;2022-07-30T01:56:58;13.50;;;6.60;;
64633;SDS011;51043;52.406;9.690;2022-07-30T01:59:29;9.77;;;6.72;;
64633;SDS011;51043;52.406;9.690;2022-07-30T02:02:00;11.93;;;6.85;;
64633;SDS011;51043;52.406;9.690;2022-07-30T02:04:30;11.40;;;6.38;;
64633;SDS011;51043;52.406;9.690;2022-07-30T02:06:58;9.15;;;6.10;;
64633;SDS011;51043;52.406;9.690;2022-07-30T02:09:33;8.05;;;6.07;;
64633;SDS011;51043;52.406;9.690;2022-07-30T02:12:09;11.02;;;6.80;;
64633;SDS011;51043;52.406;9.690;2022-07-30T02:20:21;10.52;;;6.22;;
64633;SDS011;51043;52.406;9.690;2022-07-30T02:22:52;10.70;;;6.50;;
64633;SDS011;51043;52.406;9.690;2022-07-30T02:25:23;11.90;;;6.78;;
64633;SDS011;51043;52.406;9.690;2022-07-30T02:27:54;10.32;;;7.70;;
64633;SDS011;51043;52.406;9.690;2022-07-30T02:30:24;14.60;;;8.02;;
64633;SDS011;51043;52.406;9.690;2022-07-30T02:32:54;12.70;;;7.63;;
64633;SDS011;51043;52.406;9.690;2022-07-30T02:35:28;13.77;;;7.40;;
64633;SDS011;51043;52.406;9.690;2022-07-30T02:37:58;12.90;;;7.38;;
64633;SDS011;51043;52.406;9.690;2022-07-30T02:40:28;11.13;;;7.15;;
64633;SDS011;51043;52.406;9.690;2022-07-30T02:42:55;13.38;;;8.38;;
64633;SDS011;51043;52.406;9.690;2022-07-30T02:45:25;13.27;;;8.07;;
64633;SDS011;51043;52.406;9.690;2022-07-30T02:47:56;15.40;;;8.38;;
64633;SDS011;51043;52.406;9.690;2022-07-30T02:50:27;16.90;;;8.90;;
64633;SDS011;51043;52.406;9.690;2022-07-30T02:52:55;10.65;;;8.30;;
64633;SDS011;51043;52.406;9.690;2022-07-30T02:55:25;10.82;;;8.13;;
64633;SDS011;51043;52.406;9.690;2022-07-30T02:57:53;14.77;;;8.85;;
64633;SDS011;51043;52.406;9.690;2022-07-30T03:00:23;13.85;;;8.73;;
64633;SDS011;51043;52.406;9.690;2022-07-30T03:02:51;14.15;;;9.30;;
64633;SDS011;51043;52.406;9.690;2022-07-30T03:05:19;16.88;;;8.90;;
64633;SDS011;51043;52.406;9.690;2022-07-30T03:07:46;14.60;;;9.10;;
64633;SDS011;51043;52.406;9.690;2022-07-30T03:10:14;13.32;;;8.75;;
64633;SDS011;51043;52.406;9.690;2022-07-30T03:12:43;13.15;;;9.10;;
64633;SDS011;51043;52.406;9.690;2022-07-30T03:15:12;14.73;;;9.32;;
64633;SDS011;51043;52.406;9.690;2022-07-30T03:17:43;16.15;;;8.50;;
64633;SDS011;51043;52.406;9.690;2022-07-30T03:20:14;13.25;;;8.30;;
64633;SDS011;51043;52.406;9.690;2022-07-30T03:22:45;11.13;;;8.57;;
64633;SDS011;51043;52.406;9.690;2022-07-30T03:25:17;15.45;;;8.75;;
64633;SDS011;51043;52.406;9.690;2022-07-30T03:27:49;16.33;;;8.93;;
64633;SDS011;51043;52.406;9.690;2022-07-30T03:30:19;14.15;;;8.95;;
64633;SDS011;51043;52.406;9.690;2022-07-30T03:32:48;12.35;;;9.07;;
64633;SDS011;51043;52.406;9.690;2022-07-30T03:35:17;17.75;;;8.77;;
64633;SDS011;51043;52.406;9.690;2022-07-30T03:37:44;14.63;;;8.70;;
64633;SDS011;51043;52.406;9.690;2022-07-30T03:40:12;13.25;;;8.57;;
64633;SDS011;51043;52.406;9.690;2022-07-30T03:42:40;11.85;;;8.18;;
64633;SDS011;51043;52.406;9.690;2022-07-30T03:45:09;11.95;;;7.47;;
64633;SDS011;51043;52.406;9.690;2022-07-30T03:47:39;14.75;;;8.30;;
64633;SDS011;51043;52.406;9.690;2022-07-30T03:50:09;14.15;;;8.30;;
64633;SDS011;51043;52.406;9.690;2022-07-30T03:52:38;11.80;;;7.30;;
64633;SDS011;51043;52.406;9.690;2022-07-30T03:55:07;11.25;;;7.95;;
64633;SDS011;51043;52.406;9.690;2022-07-30T03:57:36;14.43;;;8.40;;
64633;SDS011;51043;52.406;9.690;2022-07-30T04:00:04;13.07;;;7.85;;
64633;SDS011;51043;52.406;9.690;2022-07-30T04:02:42;15.63;;;9.00;;
64633;SDS011;51043;52.406;9.690;2022-07-30T04:05:29;14.57;;;8.35;;
64633;SDS011;51043;52.406;9.690;2022-07-30T04:07:59;12.55;;;7.68;;
64633;SDS011;51043;52.406;9.690;2022-07-30T04:10:28;10.98;;;8.25;;
64633;SDS011;51043;52.406;9.690;2022-07-30T04:12:57;14.02;;;9.52;;
64633;SDS011;51043;52.406;9.690;2022-07-30T04:15:27;13.20;;;8.95;;
64633;SDS011;51043;52.406;9.690;2022-07-30T04:17:55;12.85;;;8.27;;
64633;SDS011;51043;52.406;9.690;2022-07-30T04:20:30;12.88;;;8.85;;
64633;SDS011;51043;52.406;9.690;2022-07-30T04:23:02;13.07;;;9.20;;
64633;SDS011;51043;52.406;9.690;2022-07-30T04:25:29;15.25;;;8.52;;
64633;SDS011;51043;52.406;9.690;2022-07-30T04:27:58;12.77;;;9.57;;
64633;SDS011;51043;52.406;9.690;2022-07-30T04:30:26;14.65;;;10.02;;
64633;SDS011;51043;52.406;9.690;2022-07-30T04:32:53;15.75;;;10.45;;
64633;SDS011;51043;52.406;9.690;2022-07-30T04:35:56;17.88;;;10.70;;
64633;SDS011;51043;52.406;9.690;2022-07-30T04:38:30;21.17;;;10.52;;
64633;SDS011;51043;52.406;9.690;2022-07-30T04:40:58;15.77;;;9.68;;
64633;SDS011;51043;52.406;9.690;2022-07-30T04:43:30;13.77;;;9.40;;
64633;SDS011;51043;52.406;9.690;2022-07-30T04:45:58;14.57;;;9.15;;
64633;SDS011;51043;52.406;9.690;2022-07-30T04:48:25;12.02;;;7.85;;
64633;SDS011;51043;52.406;9.690;2022-07-30T04:51:12;13.07;;;8.70;;
64633;SDS011;51043;52.406;9.690;2022-07-30T04:53:48;14.93;;;9.45;;
64633;SDS011;51043;52.406;9.690;2022-07-30T04:56:18;14.43;;;8.15;;
64633;SDS011;51043;52.406;9.690;2022-07-30T04:58:47;15.82;;;9.15;;
64633;SDS011;51043;52.406;9.690;2022-07-30T05:01:16;14.43;;;10.05;;
64633;SDS011;51043;52.406;9.690;2022-07-30T05:03:49;16.55;;;10.40;;
64633;SDS011;51043;52.406;9.690;2022-07-30T05:06:19;15.73;;;10.70;;
64633;SDS011;51043;52.406;9.690;2022-07-30T05:08:47;12.20;;;9.27;;
64633;SDS011;51043;52.406;9.690;2022-07-30T05:11:15;15.32;;;10.07;;
64633;SDS011;51043;52.406;9.690;2022-07-30T05:13:44;17.15;;;10.30;;
64633;SDS011;51043;52.406;9.690;2022-07-30T05:16:17;18.88;;;10.60;;
64633;SDS011;51043;52.406;9.690;2022-07-30T05:18:46;19.98;;;10.80;;
64633;SDS011;51043;52.406;9.690;2022-07-30T05:21:13;17.98;;;10.15;;
64633;SDS011;51043;52.406;9.690;2022-07-30T05:23:44;18.73;;;10.82;;
64633;SDS011;51043;52.406;9.690;2022-07-30T05:26:32;18.52;;;9.73;;
64633;SDS011;51043;52.406;9.690;2022-07-30T05:29:17;20.40;;;10.52;;
64633;SDS011;51043;52.406;9.690;2022-07-30T05:32:08;24.67;;;11.60;;
64633;SDS011;51043;52.406;9.690;2022-07-30T05:34:36;25.33;;;11.27;;
64633;SDS011;51043;52.406;9.690;2022-07-30T05:37:17;14.45;;;10.13;;
64633;SDS011;51043;52.406;9.690;2022-07-30T05:39:46;11.70;;;9.13;;
64633;SDS011;51043;52.406;9.690;2022-07-30T05:42:53;19.30;;;10.30;;
64633;SDS011;51043;52.406;9.690;2022-07-30T05:45:36;16.45;;;9.32;;
64633;SDS011;51043;52.406;9.690;2022-07-30T05:48:16;11.85;;;8.50;;
64633;SDS011;51043;52.406;9.690;2022-07-30T05:50:45;18.48;;;9.38;;
64633;SDS011;51043;52.406;9.690;2022-07-30T05:53:19;16.42;;;10.23;;
64633;SDS011;51043;52.406;9.690;2022-07-30T05:56:17;16.15;;;9.88;;
64633;SDS011;51043;52.406;9.690;2022-07-30T05:58:53;15.00;;;9.88;;
64633;SDS011;51043;52.406;9.690;2022-07-30T06:01:44;18.27;;;10.35;;
64633;SDS011;51043;52.406;9.690;2022-07-30T06:04:17;16.05;;;10.43;;
64633;SDS011;51043;52.406;9.690;2022-07-30T06:06:48;13.43;;;8.60;;
64633;SDS011;51043;52.406;9.690;2022-07-30T06:09:15;13.63;;;8.40;;
64633;SDS011;51043;52.406;9.690;2022-07-30T06:11:41;12.13;;;8.00;;
64633;SDS011;51043;52.406;9.690;2022-07-30T06:14:09;14.77;;;8.50;;
64633;SDS011;51043;52.406;9.690;2022-07-30T06:16:41;11.38;;;7.72;;
64633;SDS011;51043;52.406;9.690;2022-07-30T06:19:08;13.90;;;7.82;;
64633;SDS011;51043;52.406;9.690;2022-07-30T06:21:41;13.82;;;8.23;;
64633;SDS011;51043;52.406;9.690;2022-07-30T06:24:10;14.05;;;9.50;;
64633;SDS011;51043;52.406;9.690;2022-07-30T06:26:55;11.38;;;7.32;;
64633;SDS011;51043;52.406;9.690;2022-07-30T06:29:23;12.65;;;6.88;;
64633;SDS011;51043;52.406;9.690;2022-07-30T06:31:50;12.93;;;6.70;;
64633;SDS011;51043;52.406;9.690;2022-07-30T06:34:17;12.30;;;5.78;;
64633;SDS011;51043;52.406;9.690;2022-07-30T06:36:44;12.23;;;7.25;;
64633;SDS011;51043;52.406;9.690;2022-07-30T06:39:15;6.70;;;5.03;;
64633;SDS011;51043;52.406;9.690;2022-07-30T06:41:51;12.93;;;5.72;;
64633;SDS011;51043;52.406;9.690;2022-07-30T06:44:18;16.52;;;7.28;;
64633;SDS011;51043;52.406;9.690;2022-07-30T06:47:04;11.20;;;5.90;;
64633;SDS011;51043;52.406;9.690;2022-07-30T06:49:33;13.52;;;5.85;;
64633;SDS011;51043;52.406;9.690;2022-07-30T06:52:01;10.85;;;5.57;;
64633;SDS011;51043;52.406;9.690;2022-07-30T06:54:28;6.60;;;4.55;;
64633;SDS011;51043;52.406;9.690;2022-07-30T06:57:00;11.00;;;4.88;;
64633;SDS011;51043;52.406;9.690;2022-07-30T06:59:28;10.85;;;5.05;;
64633;SDS011;51043;52.406;9.690;2022-07-30T07:02:23;9.48;;;5.47;;
64633;SDS011;51043;52.406;9.690;2022-07-30T07:05:10;9.35;;;4.63;;
64633;SDS011;51043;52.406;9.690;2022-07-30T07:07:40;8.10;;;3.80;;
64633;SDS011;51043;52.406;9.690;2022-07-30T07:10:12;6.28;;;4.07;;
64633;SDS011;51043;52.406;9.690;2022-07-30T07:12:54;7.63;;;4.25;;
64633;SDS011;51043;52.406;9.690;2022-07-30T07:15:25;7.13;;;4.50;;
64633;SDS011;51043;52.406;9.690;2022-07-30T07:17:52;4.65;;;3.72;;
64633;SDS011;51043;52.406;9.690;2022-07-30T07:20:33;6.60;;;4.00;;
64633;SDS011;51043;52.406;9.690;2022-07-30T07:23:03;5.70;;;3.97;;
64633;SDS011;51043;52.406;9.690;2022-07-30T07:25:33;6.70;;;4.25;;
64633;SDS011;51043;52.406;9.690;2022-07-30T07:28:00;10.88;;;3.83;;
64633;SDS011;51043;52.406;9.690;2022-07-30T07:30:28;6.65;;;3.85;;
64633;SDS011;51043;52.406;9.690;2022-07-30T07:32:55;6.65;;;3.20;;
64633;SDS011;51043;52.406;9.690;2022-07-30T07:35:25;7.82;;;3.75;;
64633;SDS011;51043;52.406;9.690;2022-07-30T07:37:53;4.88;;;2.88;;
64633;SDS011;51043;52.406;9.690;2022-07-30T07:40:23;6.68;;;3.42;;
64633;SDS011;51043;52.406;9.690;2022-07-30T07:42:50;4.93;;;2.60;;
64633;SDS011;51043;52.406;9.690;2022-07-30T07:45:17;6.10;;;3.13;;
64633;SDS011;51043;52.406;9.690;2022-07-30T07:47:50;5.70;;;2.97;;
64633;SDS011;51043;52.406;9.690;2022-07-30T07:50:41;8.10;;;3.00;;
64633;SDS011;51043;52.406;9.690;2022-07-30T07:53:17;4.72;;;2.40;;
64633;SDS011;51043;52.406;9.690;2022-07-30T07:55:44;4.75;;;2.83;;
64633;SDS011;51043;52.406;9.690;2022-07-30T07:58:11;6.13;;;2.63;;
64633;SDS011;51043;52.406;9.690;2022-07-30T08:00:42;9.95;;;2.67;;
64633;SDS011;51043;52.406;9.690;2022-07-30T08:03:09;3.45;;;2.25;;
64633;SDS011;51043;52.406;9.690;2022-07-30T08:05:36;4.57;;;2.33;;
64633;SDS011;51043;52.406;9.690;2022-07-30T08:08:20;3.58;;;2.03;;
64633;SDS011;51043;52.406;9.690;2022-07-30T08:11:07;2.75;;;2.10;;
64633;SDS011;51043;52.406;9.690;2022-07-30T08:13:52;4.88;;;2.00;;
64633;SDS011;51043;52.406;9.690;2022-07-30T08:16:38;5.22;;;2.50;;
64633;SDS011;51043;52.406;9.690;2022-07-30T08:19:34;4.40;;;2.40;;
64633;SDS011;51043;52.406;9.690;2022-07-30T08:22:20;5.40;;;2.20;;
64633;SDS011;51043;52.406;9.690;2022-07-30T08:24:47;4.72;;;1.90;;
64633;SDS011;51043;52.406;9.690;2022-07-30T08:27:14;6.50;;;2.00;;
64633;SDS011;51043;52.406;9.690;2022-07-30T08:29:42;3.92;;;2.00;;
64633;SDS011;51043;52.406;9.690;2022-07-30T08:32:09;3.95;;;2.10;;
64633;SDS011;51043;52.406;9.690;2022-07-30T08:34:38;3.10;;;2.10;;
64633;SDS011;51043;52.406;9.690;2022-07-30T08:37:05;4.72;;;1.98;;
64633;SDS011;51043;52.406;9.690;2022-07-30T08:39:35;2.75;;;1.73;;
64633;SDS011;51043;52.406;9.690;2022-07-30T08:42:02;3.35;;;2.00;;
64633;SDS011;51043;52.406;9.690;2022-07-30T08:44:31;3.65;;;2.30;;
64633;SDS011;51043;52.406;9.690;2022-07-30T08:46:59;2.95;;;2.00;;
64633;SDS011;51043;52.406;9.690;2022-07-30T08:49:47;10.80;;;2.53;;
64633;SDS011;51043;52.406;9.690;2022-07-30T08:52:20;6.03;;;2.30;;
64633;SDS011;51043;52.406;9.690;2022-07-30T08:54:56;7.95;;;2.30;;
64633;SDS011;51043;52.406;9.690;2022-07-30T08:57:23;5.18;;;2.45;;
64633;SDS011;51043;52.406;9.690;2022-07-30T08:59:51;3.95;;;2.28;;
64633;SDS011;51043;52.406;9.690;2022-07-30T09:02:18;7.18;;;2.20;;
64633;SDS011;51043;52.406;9.690;2022-07-30T09:04:57;4.30;;;2.30;;
64633;SDS011;51043;52.406;9.690;2022-07-30T09:07:24;5.15;;;2.50;;
64633;SDS011;51043;52.406;9.690;2022-07-30T09:09:50;5.50;;;2.50;;
64633;SDS011;51043;52.406;9.690;2022-07-30T09:17:45;5.13;;;2.20;;
64633;SDS011;51043;52.406;9.690;2022-07-30T09:20:22;8.93;;;2.40;;
64633;SDS011;51043;52.406;9.690;2022-07-30T09:22:52;4.55;;;1.83;;
64633;SDS011;51043;52.406;9.690;2022-07-30T09:25:33;5.00;;;2.10;;
64633;SDS011;51043;52.406;9.690;2022-07-30T09:28:30;4.40;;;2.00;;
64633;SDS011;51043;52.406;9.690;2022-07-30T09:31:12;5.15;;;2.10;;
64633;SDS011;51043;52.406;9.690;2022-07-30T09:33:59;4.40;;;2.22;;
64633;SDS011;51043;52.406;9.690;2022-07-30T09:36:44;3.95;;;2.17;;
64633;SDS011;51043;52.406;9.690;2022-07-30T09:39:37;6.65;;;2.30;;
64633;SDS011;51043;52.406;9.690;2022-07-30T09:42:17;5.82;;;2.28;;
64633;SDS011;51043;52.406;9.690;2022-07-30T09:44:46;4.03;;;2.10;;
64633;SDS011;51043;52.406;9.690;2022-07-30T09:47:32;4.70;;;2.58;;
64633;SDS011;51043;52.406;9.690;2022-07-30T09:50:02;8.75;;;2.30;;
64633;SDS011;51043;52.406;9.690;2022-07-30T09:52:31;4.75;;;2.20;;
64633;SDS011;51043;52.406;9.690;2022-07-30T09:54:58;6.57;;;2.50;;
64633;SDS011;51043;52.406;9.690;2022-07-30T09:57:27;5.45;;;2.10;;
64633;SDS011;51043;52.406;9.690;2022-07-30T10:00:14;2.92;;;1.80;;
64633;SDS011;51043;52.406;9.690;2022-07-30T10:02:51;4.28;;;2.13;;
64633;SDS011;51043;52.406;9.690;2022-07-30T10:05:38;4.15;;;2.00;;
64633;SDS011;51043;52.406;9.690;2022-07-30T10:08:14;4.07;;;1.80;;
64633;SDS011;51043;52.406;9.690;2022-07-30T10:10:43;3.40;;;1.90;;
64633;SDS011;51043;52.406;9.690;2022-07-30T10:13:12;5.05;;;2.08;;
64633;SDS011;51043;52.406;9.690;2022-07-30T10:15:41;7.95;;;2.95;;
64633;SDS011;51043;52.406;9.690;2022-07-30T10:18:10;5.18;;;2.17;;
64633;SDS011;51043;52.406;9.690;2022-07-30T10:20:56;10.40;;;2.53;;
64633;SDS011;51043;52.406;9.690;2022-07-30T10:23:46;5.05;;;2.40;;
64633;SDS011;51043;52.406;9.690;2022-07-30T10:26:33;5.55;;;2.65;;
64633;SDS011;51043;52.406;9.690;2022-07-30T10:29:29;5.30;;;2.45;;
64633;SDS011;51043;52.406;9.690;2022-07-30T10:31:56;6.93;;;2.13;;
64633;SDS011;51043;52.406;9.690;2022-07-30T10:34:25;5.47;;;2.25;;
64633;SDS011;51043;52.406;9.690;2022-07-30T10:36:56;3.88;;;2.15;;
64633;SDS011;51043;52.406;9.690;2022-07-30T10:39:30;5.78;;;2.10;;
64633;SDS011;51043;52.406;9.690;2022-07-30T10:48:15;6.20;;;1.90;;
64633;SDS011;51043;52.406;9.690;2022-07-30T10:50:51;3.50;;;1.80;;
64633;SDS011;51043;52.406;9.690;2022-07-30T10:53:39;6.65;;;2.28;;
64633;SDS011;51043;52.406;9.690;2022-07-30T10:59:01;5.47;;;1.70;;
64633;SDS011;51043;52.406;9.690;2022-07-30T11:02:12;3.33;;;1.80;;
64633;SDS011;51043;52.406;9.690;2022-07-30T11:04:26;4.22;;;2.00;;
64633;SDS011;51043;52.406;9.690;2022-07-30T11:09:55;3.28;;;2.10;;
64633;SDS011;51043;52.406;9.690;2022-07-30T11:13:12;4.05;;;2.22;;
64633;SDS011;51043;52.406;9.690;2022-07-30T11:15:14;5.80;;;2.00;;
64633;SDS011;51043;52.406;9.690;2022-07-30T11:20:29;3.90;;;2.00;;
64633;SDS011;51043;52.406;9.690;2022-07-30T11:23:10;4.53;;;2.15;;
64633;SDS011;51043;52.406;9.690;2022-07-30T11:25:44;4.10;;;2.17;;
64633;SDS011;51043;52.406;9.690;2022-07-30T11:42:30;5.88;;;2.25;;
64633;SDS011;51043;52.406;9.690;2022-07-30T11:47:47;4.10;;;2.13;;
64633;SDS011;51043;52.406;9.690;2022-07-30T11:50:17;7.15;;;2.30;;
64633;SDS011;51043;52.406;9.690;2022-07-30T11:52:53;3.78;;;2.20;;
64633;SDS011;51043;52.406;9.690;2022-07-30T11:55:25;3.25;;;2.20;;
64633;SDS011;51043;52.406;9.690;2022-07-30T11:57:58;2.47;;;2.00;;
64633;SDS011;51043;52.406;9.690;2022-07-30T12:00:36;3.50;;;2.20;;
64633;SDS011;51043;52.406;9.690;2022-07-30T12:03:08;4.03;;;2.15;;
64633;SDS011;51043;52.406;9.690;2022-07-30T12:05:40;7.72;;;2.10;;
64633;SDS011;51043;52.406;9.690;2022-07-30T12:08:12;4.05;;;2.15;;
64633;SDS011;51043;52.406;9.690;2022-07-30T12:10:43;6.65;;;2.30;;
64633;SDS011;51043;52.406;9.690;2022-07-30T12:13:21;3.15;;;2.20;;
64633;SDS011;51043;52.406;9.690;2022-07-30T12:15:48;3.03;;;2.13;;
64633;SDS011;51043;52.406;9.690;2022-07-30T12:18:27;8.00;;;2.00;;
64633;SDS011;51043;52.406;9.690;2022-07-30T12:20:57;5.25;;;2.55;;
64633;SDS011;51043;52.406;9.690;2022-07-30T12:23:26;4.43;;;2.30;;
64633;SDS011;51043;52.406;9.690;2022-07-30T12:25:54;5.70;;;2.22;;
64633;SDS011;51043;52.406;9.690;2022-07-30T12:28:24;3.85;;;2.15;;
64633;SDS011;51043;52.406;9.690;2022-07-30T12:30:56;2.83;;;1.63;;
64633;SDS011;51043;52.406;9.690;2022-07-30T12:33:23;6.65;;;2.70;;
64633;SDS011;51043;52.406;9.690;2022-07-30T12:35:54;4.50;;;2.33;;
64633;SDS011;51043;52.406;9.690;2022-07-30T12:38:29;3.17;;;1.98;;
64633;SDS011;51043;52.406;9.690;2022-07-30T12:41:10;3.75;;;1.95;;
64633;SDS011;51043;52.406;9.690;2022-07-30T12:43:55;2.92;;;1.90;;
64633;SDS011;51043;52.406;9.690;2022-07-30T12:46:23;3.50;;;2.20;;
64633;SDS011;51043;52.406;9.690;2022-07-30T12:48:56;2.75;;;2.00;;
64633;SDS011;51043;52.406;9.690;2022-07-30T12:51:34;5.03;;;2.20;;
64633;SDS011;51043;52.406;9.690;2022-07-30T12:54:15;3.78;;;2.08;;
64633;SDS011;51043;52.406;9.690;2022-07-30T12:57:00;5.95;;;2.55;;
64633;SDS011;51043;52.406;9.690;2022-07-30T12:59:29;6.40;;;2.78;;
64633;SDS011;51043;52.406;9.690;2022-07-30T13:01:57;6.00;;;2.08;;
64633;SDS011;51043;52.406;9.690;2022-07-30T13:04:28;4.53;;;2.38;;
64633;SDS011;51043;52.406;9.690;2022-07-30T13:07:06;4.68;;;2.20;;
64633;SDS011;51043;52.406;9.690;2022-07-30T13:09:38;7.03;;;2.10;;
64633;SDS011;51043;52.406;9.690;2022-07-30T13:12:05;6.32;;;2.58;;
64633;SDS011;51043;52.406;9.690;2022-07-30T13:14:32;4.90;;;2.50;;
64633;SDS011;51043;52.406;9.690;2022-07-30T13:16:59;10.43;;;2.25;;
64633;SDS011;51043;52.406;9.690;2022-07-30T13:19:28;6.97;;;2.47;;
64633;SDS011;51043;52.406;9.690;2022-07-30T13:21:55;3.95;;;2.25;;
64633;SDS011;51043;52.406;9.690;2022-07-30T13:24:22;7.50;;;2.38;;
64633;SDS011;51043;52.406;9.690;2022-07-30T13:26:50;3.08;;;2.00;;
64633;SDS011;51043;52.406;9.690;2022-07-30T13:29:16;2.35;;;1.88;;
64633;SDS011;51043;52.406;9.690;2022-07-30T13:31:43;5.30;;;1.90;;
64633;SDS011;51043;52.406;9.690;2022-07-30T13:34:10;3.10;;;1.90;;
64633;SDS011;51043;52.406;9.690;2022-07-30T13:36:37;3.10;;;1.77;;
64633;SDS011;51043;52.406;9.690;2022-07-30T13:39:04;2.60;;;1.50;;
64633;SDS011;51043;52.406;9.690;2022-07-30T13:41:32;2.10;;;1.48;;
64633;SDS011;51043;52.406;9.690;2022-07-30T13:44:02;4.43;;;1.77;;
64633;SDS011;51043;52.406;9.690;2022-07-30T13:46:29;3.13;;;1.70;;
64633;SDS011;51043;52.406;9.690;2022-07-30T13:48:56;4.93;;;2.00;;
64633;SDS011;51043;52.406;9.690;2022-07-30T13:51:23;6.22;;;1.83;;
64633;SDS011;51043;52.406;9.690;2022-07-30T13:53:53;2.40;;;1.77;;
64633;SDS011;51043;52.406;9.690;2022-07-30T13:56:20;5.10;;;2.00;;
64633;SDS011;51043;52.406;9.690;2022-07-30T13:58:47;4.25;;;1.95;;
64633;SDS011;51043;52.406;9.690;2022-07-30T14:01:17;5.93;;;2.05;;
64633;SDS011;51043;52.406;9.690;2022-07-30T14:03:44;4.07;;;1.80;;
64633;SDS011;51043;52.406;9.690;2022-07-30T14:06:14;3.22;;;2.00;;
64633;SDS011;51043;52.406;9.690;2022-07-30T14:08:41;3.33;;;2.00;;
64633;SDS011;51043;52.406;9.690;2022-07-30T14:11:07;2.33;;;1.90;;
64633;SDS011;51043;52.406;9.690;2022-07-30T14:13:34;4.57;;;2.25;;
64633;SDS011;51043;52.406;9.690;2022-07-30T14:16:01;2.67;;;1.80;;
64633;SDS011;51043;52.406;9.690;2022-07-30T14:18:28;6.63;;;2.20;;
64633;SDS011;51043;52.406;9.690;2022-07-30T14:20:55;4.57;;;2.30;;
64633;SDS011;51043;52.406;9.690;2022-07-30T14:23:22;3.75;;;2.42;;
64633;SDS011;51043;52.406;9.690;2022-07-30T14:25:49;5.57;;;2.30;;
64633;SDS011;51043;52.406;9.690;2022-07-30T14:28:16;5.57;;;2.50;;
64633;SDS011;51043;52.406;9.690;2022-07-30T14:30:43;5.40;;;2.33;;
64633;SDS011;51043;52.406;9.690;2022-07-30T14:33:10;6.85;;;2.42;;
64633;SDS011;51043;52.406;9.690;2022-07-30T14:35:37;14.18;;;2.65;;
64633;SDS011;51043;52.406;9.690;2022-07-30T14:38:03;4.50;;;2.60;;
64633;SDS011;51043;52.406;9.690;2022-07-30T14:40:31;4.70;;;2.38;;
64633;SDS011;51043;52.406;9.690;2022-07-30T14:42:58;4.63;;;2.60;;
64633;SDS011;51043;52.406;9.690;2022-07-30T14:45:25;6.10;;;2.50;;
64633;SDS011;51043;52.406;9.690;2022-07-30T14:47:51;4.53;;;2.67;;
64633;SDS011;51043;52.406;9.690;2022-07-30T14:50:19;4.85;;;2.40;;
64633;SDS011;51043;52.406;9.690;2022-07-30T14:52:46;5.70;;;2.38;;
64633;SDS011;51043;52.406;9.690;2022-07-30T14:55:14;6.65;;;2.55;;
64633;SDS011;51043;52.406;9.690;2022-07-30T14:57:40;9.05;;;2.80;;
64633;SDS011;51043;52.406;9.690;2022-07-30T15:00:08;5.97;;;2.50;;
64633;SDS011;51043;52.406;9.690;2022-07-30T15:02:37;6.22;;;2.65;;
64633;SDS011;51043;52.406;9.690;2022-07-30T15:05:04;3.80;;;2.03;;
64633;SDS011;51043;52.406;9.690;2022-07-30T15:07:31;5.97;;;2.70;;
64633;SDS011;51043;52.406;9.690;2022-07-30T15:09:58;3.80;;;2.40;;
64633;SDS011;51043;52.406;9.690;2022-07-30T15:12:25;8.70;;;2.60;;
64633;SDS011;51043;52.406;9.690;2022-07-30T15:14:52;4.22;;;2.72;;
64633;SDS011;51043;52.406;9.690;2022-07-30T15:17:19;6.68;;;3.17;;
64633;SDS011;51043;52.406;9.690;2022-07-30T15:19:47;4.85;;;2.50;;
64633;SDS011;51043;52.406;9.690;2022-07-30T15:22:15;9.73;;;2.90;;
64633;SDS011;51043;52.406;9.690;2022-07-30T15:24:42;7.82;;;2.67;;
64633;SDS011;51043;52.406;9.690;2022-07-30T15:27:11;9.80;;;2.83;;
64633;SDS011;51043;52.406;9.690;2022-07-30T15:29:38;71.53;;;22.48;;
64633;SDS011;51043;52.406;9.690;2022-07-30T15:32:05;83.90;;;28.67;;
64633;SDS011;51043;52.406;9.690;2022-07-30T15:34:32;49.13;;;16.48;;
64633;SDS011;51043;52.406;9.690;2022-07-30T15:36:59;52.80;;;18.42;;
64633;SDS011;51043;52.406;9.690;2022-07-30T15:39:27;6.35;;;3.63;;
64633;SDS011;51043;52.406;9.690;2022-07-30T15:42:02;7.13;;;2.92;;
64633;SDS011;51043;52.406;9.690;2022-07-30T15:44:31;5.68;;;2.70;;
64633;SDS011;51043;52.406;9.690;2022-07-30T15:46:58;8.52;;;2.95;;
64633;SDS011;51043;52.406;9.690;2022-07-30T15:49:27;8.90;;;3.35;;
64633;SDS011;51043;52.406;9.690;2022-07-30T15:51:54;5.70;;;2.67;;